Terminal Aerodrome Forecast
Issued by NWS Sterling, VA

Home | Current Version | Previous Version | Text Only | Print | Product List | Glossary On
Versions: 1 2 3 4 5 6 7 8 9 10 11 12 13 14 15 16 17 18 19 20 21 22 23 24 25 26 27 28
138
FTUS41 KLWX 240913 AAB
TAFDCA
TAF AMD
KDCA 240913Z 2409/2506 21011KT P6SM FEW016 BKN023 OVC100
     FM241200 19008KT P6SM BKN020
     FM241400 19008KT P6SM SCT030
     FM242100 20008KT P6SM FEW250
     FM250200 27005KT P6SM SCT060=

USA.gov is the U.S. government's official web portal to all federal, state and local government web resources and services.